KSUE/SUE METAR and TAF weather

Enter ICAO airport designator
Station Type Date Time Source
KSUE METAR 2019/12/13 16:56 UTC NOAA

KSUE 131656Z AUTO 27003KT 7SM OVC026 M03/M05 A2993 RMK AO2 SLP143 T10281050 FZRANO $


Station Type Date Time Source
KSUE Decoded METAR 2019/12/13 16:56 UTC NOAA

Sturgeon Bay, WI, United States (KSUE) 44-51N 087-25W
Dec 13, 2019 - 11:56 AM EST / 2019.12.13 1656 UTC
Wind: from the W (270 degrees) at 3 MPH (3 KT):0
Visibility: 7 mile(s):0
Sky conditions: overcast
Temperature: 27.0 F (-2.8 C)
Dew Point: 23.0 F (-5.0 C)
Relative Humidity: 84%
Pressure (altimeter): 29.93 in. Hg (1013 hPa)
ob: KSUE 131656Z AUTO 27003KT 7SM OVC026 M03/M05 A2993 RMK AO2 SLP143 T10281050 FZRANO
cycle: 17

Station Type Date Time Source
KSUE TAF UTC NOAA

Error!

Example: see airport list